Time;durP1;ratioP1;P1;durP2;ratioP2;P2;SDS_P1;SDS_P2;PMS_P1;PMS_P2;Temp;Humidity;BMP_temperature;BMP_pressure;BME280_temperature;BME280_humidity;BME280_pressure;Samples;Min_cycle;Max_cycle;Signal;HPM_P1;HPM_P2
2023/01/02 00:02:00;;;;;;;3.67;3.47;;;;;;;;;;6277390;28;20266;-79
2023/01/02 00:05:13;;;;;;;4.60;4.30;;;;;;;;;;6278206;28;20304;-80
2023/01/02 00:08:18;;;;;;;7.17;3.40;;;;;;;;;;6275097;28;20276;-80
2023/01/02 00:11:24;;;;;;;3.93;3.73;;;;;;;;;;6270768;28;20272;-80
2023/01/02 00:14:29;;;;;;;4.30;3.90;;;;;;;;;;6268422;28;20284;-81
2023/01/02 00:17:36;;;;;;;6.80;2.93;;;;;;;;;;6268538;28;20270;-79
2023/01/02 00:20:41;;;;;;;3.70;3.13;;;;;;;;;;6283650;28;20280;-81
2023/01/02 00:23:46;;;;;;;3.27;2.97;;;;;;;;;;6267965;28;20269;-80
2023/01/02 00:26:52;;;;;;;3.33;2.90;;;;;;;;;;6268361;28;20477;-80
2023/01/02 00:29:57;;;;;;;4.37;3.00;;;;;;;;;;6283982;28;20272;-81
2023/01/02 00:33:04;;;;;;;3.10;2.90;;;;;;;;;;6268242;28;20264;-81
2023/01/02 00:36:12;;;;;;;3.33;2.77;;;;;;;;;;6268304;28;20277;-81
2023/01/02 00:39:18;;;;;;;2.93;2.67;;;;;;;;;;6266235;28;20458;-81
2023/01/02 00:42:23;;;;;;;4.57;3.03;;;;;;;;;;6264316;28;20426;-80
2023/01/02 00:45:28;;;;;;;3.83;2.80;;;;;;;;;;6264500;28;20532;-80
2023/01/02 00:48:35;;;;;;;3.60;2.83;;;;;;;;;;6263840;28;20267;-80
2023/01/02 00:51:40;;;;;;;5.93;3.07;;;;;;;;;;6263626;28;20265;-79
2023/01/02 00:54:45;;;;;;;4.70;3.00;;;;;;;;;;6263758;28;20354;-80
2023/01/02 00:57:50;;;;;;;3.00;2.80;;;;;;;;;;6263857;28;20268;-80
2023/01/02 01:00:55;;;;;;;3.60;2.73;;;;;;;;;;6279177;28;20578;-80
2023/01/02 01:04:02;;;;;;;3.67;2.40;;;;;;;;;;6263816;28;20324;-81
2023/01/02 01:07:08;;;;;;;3.23;2.90;;;;;;;;;;6263515;28;20293;-80
2023/01/02 01:10:13;;;;;;;3.40;3.10;;;;;;;;;;6278440;28;20266;-80
2023/01/02 01:13:19;;;;;;;3.67;3.13;;;;;;;;;;6282045;28;20344;-80
2023/01/02 01:16:24;;;;;;;2.90;2.70;;;;;;;;;;6286981;28;20278;-80
2023/01/02 01:19:31;;;;;;;6.10;3.10;;;;;;;;;;6288464;28;20269;-79
2023/01/02 01:22:37;;;;;;;2.53;2.37;;;;;;;;;;6288297;28;20266;-81
2023/01/02 01:25:42;;;;;;;2.83;2.67;;;;;;;;;;6287858;28;20274;-81
2023/01/02 01:28:47;;;;;;;3.17;2.87;;;;;;;;;;6287960;28;20270;-81
2023/01/02 01:31:53;;;;;;;2.70;2.60;;;;;;;;;;6286541;28;20274;-81
2023/01/02 01:34:59;;;;;;;4.50;2.77;;;;;;;;;;6270510;28;20457;-81
2023/01/02 01:38:04;;;;;;;5.00;2.53;;;;;;;;;;6270333;28;20274;-80
2023/01/02 01:41:12;;;;;;;2.13;2.03;;;;;;;;;;6287405;28;20354;-81
2023/01/02 01:44:53;;;;;;;2.30;2.20;;;;;;;;;;6269598;28;20270;-80
2023/01/02 01:48:01;;;;;;;2.50;2.40;;;;;;;;;;6286997;28;20287;-79
2023/01/02 01:51:09;;;;;;;1.80;1.80;;;;;;;;;;6302006;28;20242;-79
2023/01/02 01:54:17;;;;;;;2.43;2.33;;;;;;;;;;6302315;28;20239;-80
2023/01/02 01:57:28;;;;;;;2.63;2.43;;;;;;;;;;6301896;28;20231;-80
2023/01/02 02:00:34;;;;;;;1.60;1.60;;;;;;;;;;6299195;28;20271;-80
2023/01/02 02:03:40;;;;;;;2.47;1.93;;;;;;;;;;6286939;28;20309;-80
2023/01/02 02:06:47;;;;;;;2.00;1.90;;;;;;;;;;6286346;28;20304;-80
2023/01/02 02:09:55;;;;;;;2.10;1.90;;;;;;;;;;6286538;28;20271;-81
2023/01/02 02:13:00;;;;;;;2.93;1.87;;;;;;;;;;6269165;28;20294;-81
2023/01/02 02:16:16;;;;;;;2.33;1.87;;;;;;;;;;6286709;28;20271;-81
2023/01/02 02:19:58;;;;;;;1.90;1.87;;;;;;;;;;6286301;28;20263;-80
2023/01/02 02:23:32;;;;;;;1.60;1.60;;;;;;;;;;6286618;28;20273;-80
2023/01/02 02:30:46;;;;;;;2.30;1.67;;;;;;;;;;6286736;28;20269;-80
2023/01/02 02:33:57;;;;;;;2.30;1.47;;;;;;;;;;6286447;28;20263;-80
2023/01/02 02:37:06;;;;;;;3.33;1.70;;;;;;;;;;6268706;28;20273;-80
2023/01/02 02:40:17;;;;;;;4.13;1.50;;;;;;;;;;6285781;28;20439;-80
2023/01/02 02:43:29;;;;;;;1.63;1.57;;;;;;;;;;6286359;28;20271;-80
2023/01/02 02:46:42;;;;;;;1.70;1.60;;;;;;;;;;6286116;28;20272;-80
2023/01/02 02:49:50;;;;;;;1.23;1.23;;;;;;;;;;6285727;28;20275;-81
2023/01/02 02:53:00;;;;;;;1.53;1.37;;;;;;;;;;6286282;28;20552;-81
2023/01/02 02:56:09;;;;;;;2.83;1.40;;;;;;;;;;6286244;28;20338;-81
2023/01/02 02:59:14;;;;;;;2.20;1.80;;;;;;;;;;6285869;28;20339;-80
2023/01/02 03:02:21;;;;;;;1.40;1.30;;;;;;;;;;6285058;28;20548;-80
2023/01/02 03:05:40;;;;;;;2.60;1.40;;;;;;;;;;6285460;28;20295;-80
2023/01/02 03:08:51;;;;;;;3.27;1.70;;;;;;;;;;6285935;28;20468;-81
2023/01/02 03:12:04;;;;;;;2.80;1.53;;;;;;;;;;6268072;28;20261;-80
2023/01/02 03:15:15;;;;;;;1.40;1.30;;;;;;;;;;6285660;28;20270;-81
2023/01/02 03:18:28;;;;;;;1.43;1.43;;;;;;;;;;6285276;28;20439;-81
2023/01/02 03:21:35;;;;;;;1.50;1.50;;;;;;;;;;6285683;28;20273;-81
2023/01/02 03:24:43;;;;;;;1.67;1.57;;;;;;;;;;6285608;28;20274;-81
2023/01/02 03:27:49;;;;;;;1.30;1.30;;;;;;;;;;6285318;28;20366;-81
2023/01/02 03:30:57;;;;;;;1.80;1.40;;;;;;;;;;6285585;28;20272;-81
2023/01/02 03:34:09;;;;;;;2.80;1.60;;;;;;;;;;6285562;28;20271;-80
2023/01/02 03:37:17;;;;;;;3.27;1.40;;;;;;;;;;6285971;28;20563;-80
2023/01/02 03:40:26;;;;;;;1.30;1.30;;;;;;;;;;6284133;28;20319;-79
2023/01/02 03:43:32;;;;;;;1.60;1.50;;;;;;;;;;6285352;28;20551;-80
2023/01/02 03:46:41;;;;;;;1.90;1.13;;;;;;;;;;6284818;28;20276;-80
2023/01/02 03:49:52;;;;;;;3.57;1.40;;;;;;;;;;6284917;28;20285;-80
2023/01/02 03:52:57;;;;;;;2.53;1.40;;;;;;;;;;6267101;28;20278;-79
2023/01/02 03:56:10;;;;;;;1.27;1.10;;;;;;;;;;6284799;28;20289;-81
2023/01/02 03:59:23;;;;;;;1.17;1.03;;;;;;;;;;6284799;28;20293;-81
2023/01/02 04:02:35;;;;;;;2.33;1.30;;;;;;;;;;6285348;28;20274;-80
2023/01/02 04:05:45;;;;;;;1.00;1.00;;;;;;;;;;6284265;28;20298;-81
2023/01/02 04:08:52;;;;;;;1.70;1.10;;;;;;;;;;6284667;28;20288;-79
2023/01/02 04:12:01;;;;;;;2.40;1.37;;;;;;;;;;6284678;28;20263;-80
2023/01/02 04:15:09;;;;;;;3.80;1.20;;;;;;;;;;6286584;28;20270;-80
2023/01/02 04:18:18;;;;;;;0.90;0.90;;;;;;;;;;6289608;28;20293;-80
2023/01/02 04:21:28;;;;;;;1.17;1.10;;;;;;;;;;6289808;28;20278;-80
2023/01/02 04:24:36;;;;;;;2.97;1.27;;;;;;;;;;6289815;28;20263;-79
2023/01/02 04:27:45;;;;;;;3.33;1.30;;;;;;;;;;6289063;28;20285;-79
2023/01/02 04:30:52;;;;;;;1.67;1.23;;;;;;;;;;6290283;28;20269;-81
2023/01/02 04:33:59;;;;;;;1.00;1.00;;;;;;;;;;6289224;28;20271;-80
2023/01/02 04:37:06;;;;;;;1.63;1.00;;;;;;;;;;6290398;28;20426;-80
2023/01/02 04:40:16;;;;;;;2.07;1.40;;;;;;;;;;6290551;28;20271;-81
2023/01/02 04:43:22;;;;;;;4.13;1.00;;;;;;;;;;6290666;28;20274;-81
2023/01/02 04:46:29;;;;;;;1.80;1.23;;;;;;;;;;6290386;28;20263;-80
2023/01/02 04:49:36;;;;;;;1.10;1.10;;;;;;;;;;6290681;28;20304;-80
2023/01/02 04:52:42;;;;;;;1.93;1.00;;;;;;;;;;6290677;28;20262;-80
2023/01/02 04:55:48;;;;;;;1.90;1.00;;;;;;;;;;6290130;28;20269;-81
2023/01/02 04:58:53;;;;;;;2.90;1.47;;;;;;;;;;6272942;28;20277;-80
2023/01/02 05:01:58;;;;;;;2.87;1.30;;;;;;;;;;6291479;28;20549;-81
2023/01/02 05:05:03;;;;;;;2.53;1.20;;;;;;;;;;6291716;28;20318;-81
2023/01/02 05:08:10;;;;;;;8.70;1.13;;;;;;;;;;6291221;28;20307;-81
2023/01/02 05:11:21;;;;;;;2.13;1.30;;;;;;;;;;6290854;28;20292;-81
2023/01/02 05:14:26;;;;;;;4.37;1.60;;;;;;;;;;6273068;28;20263;-80
2023/01/02 05:17:35;;;;;;;1.80;1.20;;;;;;;;;;6290789;28;20274;-81
2023/01/02 05:20:40;;;;;;;3.63;1.50;;;;;;;;;;6273523;28;20267;-81
2023/01/02 05:23:48;;;;;;;4.37;1.10;;;;;;;;;;6290643;28;20273;-80
2023/01/02 05:26:53;;;;;;;3.70;1.00;;;;;;;;;;6290328;28;20304;-80
2023/01/02 05:29:59;;;;;;;2.77;1.20;;;;;;;;;;6290638;28;20301;-81
2023/01/02 05:33:04;;;;;;;1.90;1.20;;;;;;;;;;6273406;28;20264;-81
2023/01/02 05:36:12;;;;;;;8.30;1.50;;;;;;;;;;6289436;28;20279;-80
2023/01/02 05:39:19;;;;;;;2.10;1.60;;;;;;;;;;6272096;28;20372;-81
2023/01/02 05:42:24;;;;;;;1.37;1.30;;;;;;;;;;6291278;28;20510;-80
2023/01/02 05:45:29;;;;;;;1.50;1.40;;;;;;;;;;6293444;28;20270;-81
2023/01/02 05:48:34;;;;;;;2.47;1.63;;;;;;;;;;6293361;28;20299;-81
2023/01/02 05:51:40;;;;;;;1.53;1.47;;;;;;;;;;6293474;28;20270;-81
2023/01/02 05:54:46;;;;;;;1.70;1.60;;;;;;;;;;6293182;28;20270;-81
2023/01/02 05:57:58;;;;;;;1.27;1.27;;;;;;;;;;6290965;28;20562;-81
2023/01/02 06:01:06;;;;;;;1.60;1.50;;;;;;;;;;6289874;28;20273;-81
2023/01/02 06:04:12;;;;;;;4.07;1.80;;;;;;;;;;6289502;28;20298;-81
2023/01/02 06:07:23;;;;;;;1.80;1.57;;;;;;;;;;6290198;28;20465;-81
2023/01/02 06:10:30;;;;;;;2.53;1.27;;;;;;;;;;6291159;28;20368;-81
2023/01/02 06:13:36;;;;;;;5.13;1.60;;;;;;;;;;6297089;28;20259;-80
2023/01/02 06:16:41;;;;;;;1.30;1.20;;;;;;;;;;6296321;28;20266;-81
2023/01/02 06:19:47;;;;;;;3.33;1.37;;;;;;;;;;6296169;28;20282;-82
2023/01/02 06:22:58;;;;;;;2.13;1.10;;;;;;;;;;6290893;28;20275;-81
2023/01/02 06:26:05;;;;;;;3.73;1.20;;;;;;;;;;6290474;28;20266;-82
2023/01/02 06:29:11;;;;;;;1.50;1.40;;;;;;;;;;6289093;28;20282;-82
2023/01/02 06:32:15;;;;;;;1.90;1.10;;;;;;;;;;6268944;28;20419;-81
2023/01/02 06:35:22;;;;;;;1.10;1.10;;;;;;;;;;6286326;28;20275;-82
2023/01/02 06:38:27;;;;;;;1.10;1.10;;;;;;;;;;6286191;28;20268;-81
2023/01/02 06:41:34;;;;;;;1.27;1.00;;;;;;;;;;6286094;28;20278;-81
2023/01/02 06:44:39;;;;;;;1.77;1.00;;;;;;;;;;6286181;28;20554;-81
2023/01/02 06:47:45;;;;;;;1.17;0.90;;;;;;;;;;6285710;28;20268;-80
2023/01/02 06:50:50;;;;;;;1.53;1.00;;;;;;;;;;6268376;28;20298;-81
2023/01/02 06:53:55;;;;;;;0.90;0.90;;;;;;;;;;6286114;28;20274;-80
2023/01/02 06:57:02;;;;;;;2.63;0.97;;;;;;;;;;6285934;28;20270;-82
2023/01/02 07:00:08;;;;;;;1.00;1.00;;;;;;;;;;6285939;28;20271;-82
2023/01/02 07:03:14;;;;;;;1.60;1.50;;;;;;;;;;6286131;28;20343;-81
2023/01/02 07:06:22;;;;;;;1.47;1.37;;;;;;;;;;6285953;28;20279;-82
2023/01/02 07:09:27;;;;;;;1.53;1.53;;;;;;;;;;6285931;28;20298;-82
2023/01/02 07:12:35;;;;;;;2.23;2.13;;;;;;;;;;6267955;28;20266;-82
2023/01/02 07:15:40;;;;;;;5.80;2.33;;;;;;;;;;6285630;28;20270;-82
2023/01/02 07:18:45;;;;;;;3.07;2.30;;;;;;;;;;6285184;28;20558;-82
2023/01/02 07:21:51;;;;;;;3.00;2.70;;;;;;;;;;6285511;28;20539;-80
2023/01/02 07:24:56;;;;;;;6.73;3.00;;;;;;;;;;6285268;28;20271;-81
2023/01/02 07:28:02;;;;;;;7.50;3.40;;;;;;;;;;6286035;28;20267;-81
2023/01/02 07:31:09;;;;;;;3.20;3.10;;;;;;;;;;6285324;28;20290;-81
2023/01/02 07:34:14;;;;;;;3.57;3.23;;;;;;;;;;6285845;28;20275;-80
2023/01/02 07:37:19;;;;;;;3.93;3.30;;;;;;;;;;6267952;28;20285;-81
2023/01/02 07:40:24;;;;;;;9.53;4.00;;;;;;;;;;6285268;28;20272;-80
2023/01/02 07:43:37;;;;;;;4.73;3.23;;;;;;;;;;6285202;28;20270;-81
2023/01/02 07:46:43;;;;;;;3.83;3.60;;;;;;;;;;6285738;28;20292;-81
2023/01/02 07:49:48;;;;;;;6.67;3.50;;;;;;;;;;6270609;28;20290;-81
2023/01/02 07:52:53;;;;;;;4.20;3.87;;;;;;;;;;6290504;28;20438;-81
2023/01/02 07:55:59;;;;;;;8.67;4.33;;;;;;;;;;6290048;28;20269;-81
2023/01/02 07:59:06;;;;;;;9.13;4.87;;;;;;;;;;6290468;28;20264;-82
2023/01/02 08:02:12;;;;;;;8.93;4.33;;;;;;;;;;6290243;28;20273;-81
2023/01/02 08:05:18;;;;;;;7.93;4.57;;;;;;;;;;6264238;28;20317;-80
2023/01/02 08:08:23;;;;;;;11.20;5.30;;;;;;;;;;6265551;28;20275;-81
2023/01/02 08:11:28;;;;;;;11.53;5.40;;;;;;;;;;6262216;28;20290;-81
2023/01/02 08:14:36;;;;;;;14.33;5.63;;;;;;;;;;6240875;28;20538;-82
2023/01/02 08:17:41;;;;;;;14.03;6.00;;;;;;;;;;6240629;28;20268;-82
2023/01/02 08:20:46;;;;;;;19.77;5.90;;;;;;;;;;6240738;28;20276;-80
2023/01/02 08:23:51;;;;;;;16.03;5.77;;;;;;;;;;6240324;28;20287;-83
2023/01/02 08:26:56;;;;;;;21.00;6.30;;;;;;;;;;6244371;28;20276;-84
2023/01/02 08:30:03;;;;;;;11.93;5.73;;;;;;;;;;6250497;28;20269;-83
2023/01/02 08:33:13;;;;;;;15.27;5.77;;;;;;;;;;6254297;28;20268;-82
2023/01/02 08:36:18;;;;;;;16.90;6.73;;;;;;;;;;6246266;28;20276;-81
2023/01/02 08:39:23;;;;;;;18.73;6.17;;;;;;;;;;6239872;28;20278;-82
2023/01/02 08:42:28;;;;;;;17.37;6.53;;;;;;;;;;6240321;28;20278;-82
2023/01/02 08:45:35;;;;;;;17.50;6.13;;;;;;;;;;6240655;28;20269;-82
2023/01/02 08:48:40;;;;;;;19.40;6.00;;;;;;;;;;6240110;28;20266;-83
2023/01/02 08:51:45;;;;;;;15.63;6.60;;;;;;;;;;6239863;28;20596;-81
2023/01/02 08:54:50;;;;;;;21.33;6.43;;;;;;;;;;6240185;28;20266;-81
2023/01/02 08:57:55;;;;;;;20.17;6.30;;;;;;;;;;6240416;28;20306;-82
2023/01/02 09:01:02;;;;;;;14.93;5.40;;;;;;;;;;6239467;28;20274;-82
2023/01/02 09:04:08;;;;;;;14.40;5.37;;;;;;;;;;6252202;28;20301;-81
2023/01/02 09:07:17;;;;;;;11.93;5.03;;;;;;;;;;6288928;28;20268;-81
2023/01/02 09:10:22;;;;;;;16.47;5.70;;;;;;;;;;6288680;28;20265;-82
2023/01/02 09:13:27;;;;;;;13.60;5.40;;;;;;;;;;6288693;28;20549;-82
2023/01/02 09:16:34;;;;;;;15.43;5.70;;;;;;;;;;6288778;28;20285;-83
2023/01/02 09:19:41;;;;;;;22.10;6.17;;;;;;;;;;6271070;28;20295;-82
2023/01/02 09:22:46;;;;;;;19.33;5.80;;;;;;;;;;6288263;28;20351;-82
2023/01/02 09:25:52;;;;;;;16.40;5.23;;;;;;;;;;6288323;28;20266;-82
2023/01/02 09:28:57;;;;;;;16.00;6.00;;;;;;;;;;6288216;28;20429;-83
2023/01/02 09:32:03;;;;;;;23.13;5.97;;;;;;;;;;6288523;28;20287;-82
2023/01/02 09:35:09;;;;;;;12.40;5.43;;;;;;;;;;6287802;28;20272;-82
2023/01/02 09:38:15;;;;;;;22.07;6.23;;;;;;;;;;6270073;28;20411;-82
2023/01/02 09:41:33;;;;;;;12.80;5.53;;;;;;;;;;6288161;28;20278;-83
2023/01/02 09:44:40;;;;;;;13.20;5.50;;;;;;;;;;6270218;28;20273;-82
2023/01/02 09:47:48;;;;;;;15.87;5.73;;;;;;;;;;6289145;28;20268;-82
2023/01/02 09:50:53;;;;;;;14.73;5.70;;;;;;;;;;6287438;28;20271;-83
2023/01/02 09:53:59;;;;;;;28.47;6.20;;;;;;;;;;6288057;28;20272;-81
2023/01/02 09:57:16;;;;;;;14.73;5.87;;;;;;;;;;6287097;28;20274;-82
2023/01/02 10:00:24;;;;;;;22.23;6.17;;;;;;;;;;6287621;28;20269;-81
2023/01/02 10:03:37;;;;;;;23.03;6.23;;;;;;;;;;6287312;28;20270;-81
2023/01/02 10:06:47;;;;;;;19.97;6.47;;;;;;;;;;6287102;28;20272;-82
2023/01/02 10:09:56;;;;;;;23.47;6.73;;;;;;;;;;6287470;28;20317;-81
2023/01/02 10:13:05;;;;;;;23.70;7.70;;;;;;;;;;6269475;28;20285;-82
2023/01/02 10:16:18;;;;;;;21.97;6.30;;;;;;;;;;6287335;28;20259;-82
2023/01/02 10:19:28;;;;;;;28.60;6.40;;;;;;;;;;6287321;28;20278;-82
2023/01/02 10:22:37;;;;;;;27.83;6.77;;;;;;;;;;6286886;28;20472;-83
2023/01/02 10:25:44;;;;;;;26.63;6.77;;;;;;;;;;6269338;28;20268;-83
2023/01/02 10:29:00;;;;;;;21.40;6.37;;;;;;;;;;6286709;28;20269;-83
2023/01/02 10:32:07;;;;;;;40.27;6.47;;;;;;;;;;6286611;28;20294;-82
2023/01/02 10:35:26;;;;;;;19.57;6.33;;;;;;;;;;6286392;28;20270;-81
2023/01/02 10:38:36;;;;;;;17.90;5.77;;;;;;;;;;6286741;28;20277;-83
2023/01/02 10:41:41;;;;;;;25.67;6.30;;;;;;;;;;6285814;28;20281;-83
2023/01/02 10:44:47;;;;;;;23.00;6.20;;;;;;;;;;6286593;28;20561;-84
2023/01/02 10:47:52;;;;;;;21.20;6.13;;;;;;;;;;6268554;28;20440;-83
2023/01/02 10:51:06;;;;;;;23.30;5.63;;;;;;;;;;6286287;28;20293;-83
2023/01/02 10:54:13;;;;;;;20.13;5.90;;;;;;;;;;6285822;28;20298;-83
2023/01/02 10:57:23;;;;;;;21.03;7.00;;;;;;;;;;6286487;28;20268;-82
2023/01/02 11:00:30;;;;;;;26.87;6.93;;;;;;;;;;6285704;28;20272;-84
2023/01/02 11:03:35;;;;;;;23.33;6.83;;;;;;;;;;6285866;28;20309;-84
2023/01/02 11:06:54;;;;;;;19.63;6.87;;;;;;;;;;6286522;28;20265;-83
2023/01/02 11:10:00;;;;;;;35.23;7.33;;;;;;;;;;6286027;28;20275;-82
2023/01/02 11:13:09;;;;;;;27.57;6.90;;;;;;;;;;6276226;28;20280;-84
2023/01/02 11:16:15;;;;;;;27.43;7.03;;;;;;;;;;6260987;28;20274;-83
2023/01/02 11:19:22;;;;;;;30.73;7.13;;;;;;;;;;6260971;28;20570;-83
2023/01/02 11:22:37;;;;;;;31.83;8.07;;;;;;;;;;6276324;28;20342;-82
2023/01/02 11:25:43;;;;;;;23.00;7.20;;;;;;;;;;6260609;28;20371;-81
2023/01/02 11:28:50;;;;;;;34.60;7.53;;;;;;;;;;6243379;28;20270;-83
2023/01/02 11:31:57;;;;;;;33.43;7.70;;;;;;;;;;6260897;28;20274;-82
2023/01/02 11:35:09;;;;;;;34.37;7.87;;;;;;;;;;6261759;28;20278;-83
2023/01/02 11:38:17;;;;;;;27.70;7.10;;;;;;;;;;6261440;28;20271;-83
2023/01/02 11:45:14;;;;;;;22.47;7.07;;;;;;;;;;6237351;28;20324;-82
2023/01/02 11:48:21;;;;;;;13.53;6.87;;;;;;;;;;6260950;28;20269;-82
2023/01/02 11:51:27;;;;;;;27.67;6.87;;;;;;;;;;6260561;28;20273;-83
2023/01/02 11:54:43;;;;;;;19.00;6.07;;;;;;;;;;6260562;28;20294;-82
2023/01/02 11:57:54;;;;;;;21.87;6.67;;;;;;;;;;6259835;28;20339;-83
2023/01/02 12:01:04;;;;;;;27.10;6.73;;;;;;;;;;6264516;28;20259;-81
2023/01/02 12:04:13;;;;;;;22.97;6.40;;;;;;;;;;6277003;28;20252;-80
2023/01/02 12:07:31;;;;;;;26.60;7.03;;;;;;;;;;6277449;28;20212;-83
2023/01/02 12:10:47;;;;;;;16.40;6.83;;;;;;;;;;6277454;28;20235;-83
2023/01/02 12:14:06;;;;;;;18.00;6.80;;;;;;;;;;6276121;28;20267;-82
2023/01/02 12:17:16;;;;;;;12.73;6.33;;;;;;;;;;6271827;28;20259;-81
2023/01/02 12:20:39;;;;;;;21.40;7.40;;;;;;;;;;6290737;28;20232;-81
2023/01/02 12:23:57;;;;;;;19.20;7.13;;;;;;;;;;6273920;28;20262;-83
2023/01/02 12:27:08;;;;;;;21.57;6.97;;;;;;;;;;6263452;28;20274;-83
2023/01/02 12:30:15;;;;;;;17.53;7.27;;;;;;;;;;6260185;28;20418;-83
2023/01/02 12:33:35;;;;;;;17.97;6.77;;;;;;;;;;6259815;28;20295;-83
2023/01/02 12:36:58;;;;;;;17.10;6.67;;;;;;;;;;6262127;28;20270;-84
2023/01/02 12:40:18;;;;;;;22.13;7.63;;;;;;;;;;6264961;28;20279;-83
2023/01/02 12:43:45;;;;;;;26.47;7.70;;;;;;;;;;6264798;28;20277;-83
2023/01/02 12:47:13;;;;;;;22.90;7.57;;;;;;;;;;6264542;28;20578;-83
2023/01/02 12:50:41;;;;;;;23.20;8.33;;;;;;;;;;6222532;28;20558;-84
2023/01/02 12:54:06;;;;;;;33.13;9.20;;;;;;;;;;6264409;28;20287;-83
2023/01/02 12:57:29;;;;;;;27.13;8.57;;;;;;;;;;6264052;28;20352;-84
2023/01/02 13:00:59;;;;;;;33.30;9.43;;;;;;;;;;6264244;28;20258;-83
2023/01/02 13:04:13;;;;;;;42.27;9.07;;;;;;;;;;6263846;28;20322;-84
2023/01/02 13:07:24;;;;;;;24.07;8.93;;;;;;;;;;6264047;28;20271;-84
2023/01/02 13:10:30;;;;;;;31.80;8.80;;;;;;;;;;6264313;28;20271;-82
2023/01/02 13:13:37;;;;;;;35.00;8.07;;;;;;;;;;6285282;28;20281;-83
2023/01/02 13:16:47;;;;;;;31.87;7.83;;;;;;;;;;6288409;28;20273;-83
2023/01/02 13:19:56;;;;;;;29.00;7.10;;;;;;;;;;6288979;28;20266;-83
2023/01/02 13:23:09;;;;;;;20.87;7.00;;;;;;;;;;6288471;28;20318;-83
2023/01/02 13:26:17;;;;;;;24.47;6.50;;;;;;;;;;6288640;28;20368;-84
2023/01/02 13:29:28;;;;;;;26.10;6.80;;;;;;;;;;6288274;28;20274;-83
2023/01/02 13:32:35;;;;;;;25.80;6.73;;;;;;;;;;6288542;28;20274;-83
2023/01/02 13:35:40;;;;;;;23.90;6.47;;;;;;;;;;6287875;28;20455;-84
2023/01/02 13:38:46;;;;;;;30.63;6.97;;;;;;;;;;6288132;28;20270;-83
2023/01/02 13:45:19;;;;;;;24.60;6.90;;;;;;;;;;6288283;28;20581;-83
2023/01/02 13:48:31;;;;;;;24.67;7.13;;;;;;;;;;6290577;28;20265;-82
2023/01/02 13:51:37;;;;;;;25.23;6.93;;;;;;;;;;6291905;28;20432;-84
2023/01/02 13:55:10;;;;;;;29.50;6.80;;;;;;;;;;6270006;28;20286;-83
2023/01/02 13:58:34;;;;;;;33.30;7.10;;;;;;;;;;6287734;28;20278;-84
2023/01/02 14:02:13;;;;;;;34.53;7.40;;;;;;;;;;6287344;28;20444;-85
2023/01/02 14:05:55;;;;;;;26.77;6.93;;;;;;;;;;6287269;28;20302;-83
2023/01/02 14:09:14;;;;;;;33.00;8.00;;;;;;;;;;6287863;28;20483;-85
2023/01/02 14:12:19;;;;;;;25.07;7.20;;;;;;;;;;6288131;28;20455;-83
2023/01/02 14:15:26;;;;;;;31.83;7.93;;;;;;;;;;6270627;28;20284;-83
2023/01/02 14:18:31;;;;;;;29.80;8.17;;;;;;;;;;6287852;28;20370;-83
2023/01/02 14:21:38;;;;;;;26.60;7.17;;;;;;;;;;6287412;28;20528;-84
2023/01/02 14:24:46;;;;;;;24.57;7.63;;;;;;;;;;6287003;28;20274;-83
2023/01/02 14:27:53;;;;;;;26.37;7.47;;;;;;;;;;6287176;28;20271;-83
2023/01/02 14:30:59;;;;;;;24.40;7.00;;;;;;;;;;6286480;28;20266;-84
2023/01/02 14:34:04;;;;;;;22.17;7.30;;;;;;;;;;6268981;28;20293;-83
2023/01/02 14:37:10;;;;;;;26.30;7.17;;;;;;;;;;6286804;28;20464;-83
2023/01/02 14:40:34;;;;;;;26.13;7.33;;;;;;;;;;6286459;28;20266;-83
2023/01/02 14:43:39;;;;;;;20.10;7.37;;;;;;;;;;6286119;28;20281;-83
2023/01/02 14:46:44;;;;;;;25.43;6.50;;;;;;;;;;6286650;28;20433;-82
2023/01/02 14:49:54;;;;;;;21.17;6.33;;;;;;;;;;6286149;28;20274;-84
2023/01/02 14:53:04;;;;;;;22.43;6.77;;;;;;;;;;6287089;28;20269;-84
2023/01/02 14:56:16;;;;;;;24.50;7.00;;;;;;;;;;6286680;28;20286;-84
2023/01/02 14:59:27;;;;;;;18.20;6.30;;;;;;;;;;6286183;28;20274;-83
2023/01/02 15:02:36;;;;;;;19.93;6.30;;;;;;;;;;6287094;28;20440;-83
2023/01/02 15:05:47;;;;;;;20.20;6.93;;;;;;;;;;6298416;28;20298;-83
2023/01/02 15:08:53;;;;;;;28.40;7.43;;;;;;;;;;6302173;28;20234;-83
2023/01/02 15:15:28;;;;;;;24.37;7.13;;;;;;;;;;6287031;28;20294;-83
2023/01/02 15:18:34;;;;;;;20.93;6.80;;;;;;;;;;6286725;28;20319;-84
2023/01/02 15:21:40;;;;;;;22.43;7.40;;;;;;;;;;6285967;28;20268;-83
2023/01/02 15:24:48;;;;;;;29.53;7.80;;;;;;;;;;6286143;28;20273;-83
2023/01/02 15:27:55;;;;;;;22.87;6.83;;;;;;;;;;6286325;28;20271;-84
2023/01/02 15:31:02;;;;;;;21.20;7.27;;;;;;;;;;6286001;28;20274;-83
2023/01/02 15:34:09;;;;;;;22.47;6.87;;;;;;;;;;6285113;28;20264;-84
2023/01/02 15:37:15;;;;;;;17.33;6.57;;;;;;;;;;6285574;28;20444;-83
2023/01/02 15:40:25;;;;;;;16.17;6.87;;;;;;;;;;6286327;28;20268;-84
2023/01/02 15:47:12;;;;;;;21.63;7.17;;;;;;;;;;6186246;28;20277;-84
2023/01/02 15:50:19;;;;;;;12.23;7.20;;;;;;;;;;6185952;28;20281;-84
2023/01/02 15:53:27;;;;;;;20.63;6.70;;;;;;;;;;6267723;28;20271;-86
2023/01/02 15:56:34;;;;;;;17.83;5.90;;;;;;;;;;6268387;28;20292;-85
2023/01/02 15:59:41;;;;;;;14.47;5.77;;;;;;;;;;6285918;28;20277;-85
2023/01/02 16:02:46;;;;;;;15.67;5.83;;;;;;;;;;6287116;28;20274;-83
2023/01/02 16:05:55;;;;;;;20.07;6.60;;;;;;;;;;6287690;28;20296;-83
2023/01/02 16:09:01;;;;;;;19.20;5.80;;;;;;;;;;6285528;28;20275;-83
2023/01/02 16:12:11;;;;;;;17.43;5.57;;;;;;;;;;6289850;28;20266;-83
2023/01/02 16:15:21;;;;;;;12.80;5.87;;;;;;;;;;6290770;28;20302;-83
2023/01/02 16:18:30;;;;;;;13.23;6.47;;;;;;;;;;6290442;28;20453;-84
2023/01/02 16:21:39;;;;;;;15.60;6.43;;;;;;;;;;6273188;28;20429;-83
2023/01/02 16:24:46;;;;;;;14.27;6.50;;;;;;;;;;6289579;28;20276;-85
2023/01/02 16:27:54;;;;;;;10.90;5.70;;;;;;;;;;6289766;28;20271;-84
2023/01/02 16:31:11;;;;;;;12.50;6.03;;;;;;;;;;6289953;28;20269;-83
2023/01/02 16:34:34;;;;;;;14.63;6.10;;;;;;;;;;6290110;28;20413;-84
2023/01/02 16:37:39;;;;;;;13.07;5.80;;;;;;;;;;6291033;28;20539;-83
2023/01/02 16:40:49;;;;;;;15.77;6.37;;;;;;;;;;6290146;28;20278;-84
2023/01/02 16:44:12;;;;;;;18.27;6.60;;;;;;;;;;6271526;28;20272;-84
2023/01/02 16:47:19;;;;;;;16.97;6.67;;;;;;;;;;6288957;28;20283;-85
2023/01/02 16:50:26;;;;;;;25.97;7.03;;;;;;;;;;6271252;28;20265;-83
2023/01/02 16:53:32;;;;;;;17.03;6.97;;;;;;;;;;6289167;28;20265;-83
2023/01/02 16:56:37;;;;;;;15.80;6.70;;;;;;;;;;6288597;28;20288;-84
2023/01/02 16:59:42;;;;;;;17.53;7.43;;;;;;;;;;6288905;28;20273;-83
2023/01/02 17:02:49;;;;;;;23.43;7.93;;;;;;;;;;6289435;28;20274;-85
2023/01/02 17:05:56;;;;;;;16.60;7.27;;;;;;;;;;6289284;28;20302;-84
2023/01/02 17:09:06;;;;;;;25.80;8.13;;;;;;;;;;6288765;28;20274;-84
2023/01/02 17:12:13;;;;;;;20.13;8.03;;;;;;;;;;6288482;28;20282;-83
2023/01/02 17:15:18;;;;;;;28.70;8.77;;;;;;;;;;6288804;28;20292;-84
2023/01/02 17:18:25;;;;;;;22.37;8.43;;;;;;;;;;6290276;28;20266;-84
2023/01/02 17:21:30;;;;;;;47.87;9.23;;;;;;;;;;6287410;28;20277;-85
2023/01/02 17:24:37;;;;;;;32.40;9.07;;;;;;;;;;6288471;28;20274;-84
2023/01/02 17:27:42;;;;;;;64.77;9.57;;;;;;;;;;6288559;28;20455;-82
2023/01/02 17:30:49;;;;;;;81.77;8.83;;;;;;;;;;6288320;28;20306;-84
2023/01/02 17:33:56;;;;;;;104.27;10.13;;;;;;;;;;6288216;28;20369;-83
2023/01/02 17:37:01;;;;;;;33.37;6.63;;;;;;;;;;6288057;28;20294;-83
2023/01/02 17:40:08;;;;;;;250.77;18.13;;;;;;;;;;6287928;28;20439;-82
2023/01/02 17:43:15;;;;;;;92.63;10.03;;;;;;;;;;6288071;28;20269;-83
2023/01/02 17:46:20;;;;;;;32.07;9.63;;;;;;;;;;6287651;28;20278;-83
2023/01/02 17:49:46;;;;;;;23.03;8.60;;;;;;;;;;6287671;28;20277;-82
2023/01/02 17:52:52;;;;;;;40.27;9.43;;;;;;;;;;6286973;28;20276;-83
2023/01/02 17:55:58;;;;;;;35.60;9.80;;;;;;;;;;6287181;28;20292;-83
2023/01/02 17:59:23;;;;;;;69.70;9.97;;;;;;;;;;6287594;28;20274;-83
2023/01/02 18:02:28;;;;;;;21.50;8.33;;;;;;;;;;6287482;28;20556;-84
2023/01/02 18:05:37;;;;;;;22.00;8.57;;;;;;;;;;6287439;28;20313;-83
2023/01/02 18:08:42;;;;;;;25.50;8.17;;;;;;;;;;6286946;28;20269;-82
2023/01/02 18:11:48;;;;;;;23.30;8.60;;;;;;;;;;6287246;28;20265;-83
2023/01/02 18:14:54;;;;;;;248.00;12.73;;;;;;;;;;6287249;28;20273;-82
2023/01/02 18:18:01;;;;;;;20.67;7.50;;;;;;;;;;6287629;28;20294;-82
2023/01/02 18:21:12;;;;;;;58.47;9.73;;;;;;;;;;6270311;28;20269;-82
2023/01/02 18:24:23;;;;;;;268.00;14.13;;;;;;;;;;6302126;28;20241;-81
2023/01/02 18:27:31;;;;;;;11.70;5.47;;;;;;;;;;6304029;28;20222;-82
2023/01/02 18:30:36;;;;;;;12.00;5.60;;;;;;;;;;6302681;28;20226;-82
2023/01/02 18:33:42;;;;;;;18.27;7.57;;;;;;;;;;6287368;28;20267;-83
2023/01/02 18:36:50;;;;;;;13.53;5.67;;;;;;;;;;6286836;28;20297;-82
2023/01/02 18:39:56;;;;;;;67.83;8.50;;;;;;;;;;6268950;28;20269;-83
2023/01/02 18:43:14;;;;;;;73.33;8.90;;;;;;;;;;6286748;28;20306;-83
2023/01/02 18:46:21;;;;;;;169.50;11.20;;;;;;;;;;6286935;28;20291;-83
2023/01/02 18:49:29;;;;;;;18.37;7.67;;;;;;;;;;6286363;28;20261;-83
2023/01/02 18:52:36;;;;;;;178.30;11.50;;;;;;;;;;6286653;28;20463;-82
2023/01/02 18:55:41;;;;;;;20.27;7.73;;;;;;;;;;6285700;28;20581;-82
2023/01/02 18:58:53;;;;;;;102.50;9.70;;;;;;;;;;6284679;28;20286;-83
2023/01/02 19:02:01;;;;;;;17.90;7.33;;;;;;;;;;6285962;28;20290;-83